Time;durP1;ratioP1;P1;durP2;ratioP2;P2;SDS_P1;SDS_P2;PMS_P1;PMS_P2;Temp;Humidity;BMP_temperature;BMP_pressure;BME280_temperature;BME280_humidity;BME280_pressure;Samples;Min_cycle;Max_cycle;Signal;HPM_P1;HPM_P2
2023/08/09 00:07:34;;;;;;;11.45;4.70;;;;;;;27.01;100.00;100443.03;20883513;28;20064;-69
2023/08/09 00:17:38;;;;;;;10.18;4.82;;;;;;;27.00;100.00;100450.28;20899016;28;20620;-70
2023/08/09 00:28:02;;;;;;;13.15;5.40;;;;;;;26.98;100.00;100445.94;20901804;28;20111;-69
2023/08/09 00:38:26;;;;;;;15.27;5.43;;;;;;;26.94;100.00;100451.53;20879962;28;20052;-69
2023/08/09 00:48:49;;;;;;;15.20;4.85;;;;;;;26.91;100.00;100450.84;20894255;28;20160;-70
2023/08/09 00:58:55;;;;;;;11.95;4.85;;;;;;;26.85;100.00;100454.69;20902276;28;20052;-69
2023/08/09 01:09:28;;;;;;;16.33;4.95;;;;;;;26.79;100.00;100456.88;20882259;28;20394;-68
2023/08/09 01:19:54;;;;;;;12.57;3.97;;;;;;;26.73;100.00;100449.09;20878964;28;20057;-69
2023/08/09 01:30:18;;;;;;;12.35;4.63;;;;;;;26.70;100.00;100447.47;20881142;28;20590;-69
2023/08/09 01:40:25;;;;;;;11.43;4.37;;;;;;;26.67;100.00;100457.56;20893741;28;20394;-69
2023/08/09 01:50:50;;;;;;;12.32;4.65;;;;;;;26.62;100.00;100468.69;20892360;28;20057;-69
2023/08/09 02:01:12;;;;;;;17.73;4.22;;;;;;;26.54;100.00;100477.22;20879070;28;20045;-69
2023/08/09 02:11:37;;;;;;;12.70;4.72;;;;;;;26.50;100.00;100482.91;20916954;28;20049;-69
2023/08/09 02:22:00;;;;;;;12.20;4.72;;;;;;;26.44;100.00;100502.19;20875589;28;20053;-68
2023/08/09 02:32:24;;;;;;;19.05;5.25;;;;;;;26.40;100.00;100504.16;20877860;28;20045;-69
2023/08/09 02:42:47;;;;;;;14.25;4.40;;;;;;;26.37;100.00;100522.44;20886282;28;20503;-69
2023/08/09 02:53:11;;;;;;;14.02;4.82;;;;;;;26.35;100.00;100508.09;20877340;28;20041;-69
2023/08/09 03:03:34;;;;;;;17.63;4.88;;;;;;;26.32;100.00;100522.66;20893139;28;20537;-69
2023/08/09 03:13:58;;;;;;;13.95;4.43;;;;;;;26.29;100.00;100530.94;20880284;28;20060;-69
2023/08/09 03:24:20;;;;;;;10.68;4.45;;;;;;;26.30;100.00;100521.00;20873999;28;20083;-69
2023/08/09 03:34:45;;;;;;;11.65;4.63;;;;;;;26.29;100.00;100535.47;20871681;28;20045;-69
2023/08/09 03:45:10;;;;;;;13.55;4.53;;;;;;;26.26;100.00;100543.75;20871378;28;20053;-69
2023/08/09 03:55:34;;;;;;;13.93;3.80;;;;;;;26.31;100.00;100544.41;20882764;28;20099;-69
2023/08/09 04:05:57;;;;;;;14.25;3.83;;;;;;;26.54;100.00;100553.03;20867688;28;20056;-69
2023/08/09 04:16:22;;;;;;;13.63;3.88;;;;;;;26.93;100.00;100558.16;20872840;28;20053;-69
2023/08/09 04:26:44;;;;;;;11.35;3.50;;;;;;;27.31;100.00;100574.09;20861733;28;20098;-69
2023/08/09 04:37:09;;;;;;;11.82;3.67;;;;;;;27.55;100.00;100591.75;20823129;28;20545;-69
2023/08/09 04:47:32;;;;;;;8.77;3.30;;;;;;;27.93;100.00;100583.19;20874941;28;20048;-69
2023/08/09 04:57:56;;;;;;;18.38;4.00;;;;;;;28.09;100.00;100592.19;20909381;28;20106;-69
2023/08/09 05:08:18;;;;;;;10.40;2.35;;;;;;;28.36;100.00;100595.97;20890539;28;20044;-70
2023/08/09 05:18:42;;;;;;;11.13;2.60;;;;;;;29.04;100.00;100592.69;20881030;28;20053;-69
2023/08/09 05:29:05;;;;;;;12.13;2.83;;;;;;;29.66;100.00;100610.44;20897340;28;20053;-69
2023/08/09 05:39:29;;;;;;;9.90;2.45;;;;;;;30.43;100.00;100615.19;20900167;28;20057;-69
2023/08/09 05:49:51;;;;;;;7.05;2.22;;;;;;;31.57;100.00;100626.13;20863646;28;20042;-69
2023/08/09 06:00:17;;;;;;;11.77;2.67;;;;;;;32.35;100.00;100652.06;20876475;28;20052;-70
2023/08/09 06:10:39;;;;;;;12.97;2.50;;;;;;;33.01;91.78;100658.75;20908448;28;20049;-69
2023/08/09 06:21:04;;;;;;;6.60;2.38;;;;;;;33.60;81.22;100653.94;20897013;28;20057;-70
2023/08/09 06:31:27;;;;;;;8.67;2.13;;;;;;;34.15;76.52;100648.47;20895226;28;20151;-70
2023/08/09 06:41:52;;;;;;;11.93;2.40;;;;;;;34.47;74.82;100662.22;20895200;28;20107;-70
2023/08/09 06:52:15;;;;;;;13.63;2.58;;;;;;;33.73;78.98;100667.53;20845263;28;20037;-70
2023/08/09 07:02:39;;;;;;;18.83;2.78;;;;;;;33.37;81.29;100667.75;20892810;28;20052;-69
2023/08/09 07:12:51;;;;;;;7.47;2.20;;;;;;;34.17;74.51;100676.63;20887760;28;20144;-69
2023/08/09 07:23:15;;;;;;;11.48;2.90;;;;;;;34.03;70.46;100672.31;20891444;28;20468;-71
2023/08/09 07:33:38;;;;;;;9.73;3.00;;;;;;;34.66;65.03;100676.06;20877501;28;20048;-70
2023/08/09 07:44:02;;;;;;;13.25;2.42;;;;;;;34.88;62.55;100694.31;20873237;28;20053;-70
2023/08/09 07:54:24;;;;;;;12.15;2.47;;;;;;;34.86;63.17;100683.47;20871867;28;20067;-70
2023/08/09 08:04:49;;;;;;;13.48;3.10;;;;;;;35.38;58.53;100690.75;20887897;28;20087;-70
2023/08/09 08:15:13;;;;;;;10.63;3.50;;;;;;;35.27;55.13;100712.81;20902238;28;20709;-70
2023/08/09 08:25:37;;;;;;;12.73;3.53;;;;;;;34.86;57.31;100710.03;20889880;28;20077;-69
2023/08/09 08:35:59;;;;;;;10.80;3.38;;;;;;;34.77;56.39;100718.09;20904227;28;20059;-70
2023/08/09 08:46:27;;;;;;;11.38;2.58;;;;;;;34.65;55.24;100710.03;20895989;28;20057;-69
2023/08/09 08:56:51;;;;;;;12.93;2.80;;;;;;;35.08;53.63;100713.53;20873916;28;20366;-70
2023/08/09 09:07:15;;;;;;;17.13;3.17;;;;;;;35.69;51.58;100699.91;20862294;28;20499;-69
2023/08/09 09:17:29;;;;;;;13.52;2.88;;;;;;;35.94;49.48;100695.78;20882187;28;20061;-68
2023/08/09 09:27:35;;;;;;;10.88;3.00;;;;;;;35.61;48.14;100709.81;20895203;28;20045;-70
2023/08/09 09:38:00;;;;;;;15.50;3.13;;;;;;;36.22;47.63;100708.78;20891292;28;20049;-70
2023/08/09 09:48:25;;;;;;;9.10;2.47;;;;;;;36.84;45.91;100714.88;20883633;28;20478;-68
2023/08/09 09:58:47;;;;;;;8.20;2.35;;;;;;;37.23;44.15;100710.22;20890603;28;20059;-70
2023/08/09 10:09:13;;;;;;;7.80;2.45;;;;;;;36.64;42.78;100712.16;20852915;28;20595;-69
2023/08/09 10:19:22;;;;;;;9.60;2.45;;;;;;;36.69;43.51;100712.56;20870514;28;20065;-68
2023/08/09 10:29:58;;;;;;;9.27;2.17;;;;;;;36.37;43.87;100716.56;20891258;28;20147;-71
2023/08/09 10:40:21;;;;;;;9.20;3.10;;;;;;;36.04;44.61;100720.56;20866741;28;20059;-69
2023/08/09 10:50:45;;;;;;;9.52;2.70;;;;;;;36.18;45.57;100709.16;20867737;28;20429;-69
2023/08/09 11:01:08;;;;;;;7.85;2.80;;;;;;;36.33;45.78;100716.88;20882474;28;20099;-69
2023/08/09 11:11:32;;;;;;;9.55;3.13;;;;;;;35.57;45.62;100725.72;20840539;28;20057;-69
2023/08/09 11:21:57;;;;;;;12.53;3.10;;;;;;;35.63;47.21;100713.31;20841102;28;20573;-69
2023/08/09 11:32:28;;;;;;;10.68;3.42;;;;;;;35.85;47.32;100711.22;20839633;28;20064;-69
2023/08/09 11:42:32;;;;;;;12.07;3.50;;;;;;;35.22;49.90;100712.38;20792461;28;20052;-69
2023/08/09 11:52:57;;;;;;;9.25;3.05;;;;;;;35.44;49.86;100709.47;20807308;28;20098;-69
2023/08/09 12:03:21;;;;;;;14.03;4.20;;;;;;;35.40;49.68;100705.22;20809359;28;20107;-70
2023/08/09 12:13:45;;;;;;;;;;;;;;;35.71;48.83;100710.78;20844923;28;20048;-70
2023/08/09 12:24:09;;;;;;;9.82;3.17;;;;;;;35.61;46.92;100696.94;20850536;28;19965;-70
2023/08/09 12:34:33;;;;;;;16.65;3.50;;;;;;;35.07;47.69;100699.94;20878132;28;20053;-70
2023/08/09 12:44:36;;;;;;;12.33;3.50;;;;;;;34.64;48.38;100703.66;20901343;28;20057;-71
2023/08/09 12:55:00;;;;;;;12.55;3.45;;;;;;;34.47;50.41;100692.38;20886686;28;20494;-70
2023/08/09 13:07:17;;;;;;;13.23;3.03;;;;;;;34.40;50.91;100719.44;21212256;27;20128;-68
2023/08/09 13:17:40;;;;;;;10.13;3.00;;;;;;;33.92;51.23;100728.03;21116161;28;20052;-68
2023/08/09 13:28:05;;;;;;;11.25;3.20;;;;;;;33.88;50.54;100725.63;21090354;28;20071;-68
2023/08/09 13:38:29;;;;;;;12.60;3.30;;;;;;;33.47;51.62;100723.53;21139340;28;20119;-69
2023/08/09 13:48:53;;;;;;;9.95;3.10;;;;;;;33.60;51.54;100729.75;21105666;28;20495;-69
2023/08/09 13:59:16;;;;;;;11.10;3.10;;;;;;;32.93;52.71;100732.34;21093651;28;20056;-69
2023/08/09 14:09:41;;;;;;;9.70;3.45;;;;;;;32.52;57.72;100721.84;21101368;28;20055;-69
2023/08/09 14:20:05;;;;;;;13.20;3.33;;;;;;;32.32;59.50;100720.63;21052346;28;20536;-71
2023/08/09 14:30:30;;;;;;;17.55;3.72;;;;;;;32.28;60.49;100715.50;21051376;28;20036;-69
2023/08/09 14:40:54;;;;;;;7.25;3.17;;;;;;;32.51;61.72;100721.94;21050779;28;20473;-69
2023/08/09 14:51:19;;;;;;;12.20;3.17;;;;;;;32.51;60.67;100705.53;21014451;28;20032;-69
2023/08/09 15:01:41;;;;;;;8.10;2.58;;;;;;;31.77;60.91;100726.53;21039166;28;20408;-69
2023/08/09 15:12:07;;;;;;;10.77;2.83;;;;;;;31.36;61.78;100732.25;21048087;28;20161;-69
2023/08/09 15:22:30;;;;;;;13.68;3.00;;;;;;;31.11;63.27;100726.81;21044691;28;20179;-70
2023/08/09 15:32:56;;;;;;;12.88;3.50;;;;;;;30.85;66.77;100737.63;21045584;28;20161;-70
2023/08/09 15:43:19;;;;;;;13.73;3.03;;;;;;;30.67;69.80;100729.84;21057334;28;20044;-70
2023/08/09 15:53:44;;;;;;;12.57;3.53;;;;;;;30.47;72.72;100737.47;21021511;28;20060;-70
2023/08/09 16:04:07;;;;;;;16.85;3.20;;;;;;;30.26;76.52;100733.47;21018847;28;20066;-70
2023/08/09 16:14:32;;;;;;;12.15;3.13;;;;;;;30.18;78.79;100740.41;21032158;28;20109;-71
2023/08/09 16:24:45;;;;;;;13.38;3.35;;;;;;;29.66;89.47;100760.13;21042500;28;20096;-71
2023/08/09 16:35:10;;;;;;;15.73;3.50;;;;;;;29.47;91.38;100751.38;21010886;28;20040;-70
2023/08/09 16:45:34;;;;;;;12.05;3.08;;;;;;;29.35;93.96;100757.56;21035345;28;20072;-70
2023/08/09 16:55:52;;;;;;;12.10;3.65;;;;;;;29.22;97.70;100762.84;21031805;28;20066;-69
2023/08/09 17:06:15;;;;;;;13.63;3.42;;;;;;;29.08;98.18;100763.69;21028523;28;20059;-70
2023/08/09 17:16:39;;;;;;;10.50;3.25;;;;;;;28.92;99.43;100766.50;21057058;28;20048;-70
2023/08/09 17:27:02;;;;;;;17.52;3.20;;;;;;;28.72;100.00;100769.50;21029961;28;20180;-69
2023/08/09 17:37:27;;;;;;;12.32;3.55;;;;;;;28.51;100.00;100778.91;21037946;28;20044;-70
2023/08/09 17:47:50;;;;;;;17.63;3.90;;;;;;;28.23;100.00;100800.47;21045934;28;20060;-70
2023/08/09 17:58:14;;;;;;;15.43;4.72;;;;;;;28.13;100.00;100800.09;21048739;28;20467;-70
2023/08/09 18:08:37;;;;;;;14.32;3.65;;;;;;;28.03;100.00;100804.28;21055606;28;20497;-70
2023/08/09 18:19:02;;;;;;;17.63;3.92;;;;;;;27.91;100.00;100807.69;21123439;28;20051;-70
2023/08/09 18:29:25;;;;;;;10.77;3.63;;;;;;;27.75;100.00;100810.38;21088482;27;20101;-70
2023/08/09 18:39:30;;;;;;;15.30;4.75;;;;;;;27.76;100.00;100828.41;21037495;28;20492;-70
2023/08/09 18:49:53;;;;;;;11.02;4.32;;;;;;;27.76;100.00;100833.84;21080976;28;20048;-70
2023/08/09 19:00:19;;;;;;;11.02;3.95;;;;;;;27.75;100.00;100827.53;21048257;28;20404;-70
2023/08/09 19:10:42;;;;;;;12.85;3.60;;;;;;;27.64;100.00;100839.91;21031429;28;20148;-70
2023/08/09 19:21:07;;;;;;;13.30;5.40;;;;;;;27.51;100.00;100836.06;21053088;28;20101;-71
2023/08/09 19:31:10;;;;;;;18.02;3.67;;;;;;;27.42;100.00;100840.16;21056418;28;20616;-70
2023/08/09 19:41:35;;;;;;;14.35;3.50;;;;;;;27.34;100.00;100843.28;21036744;28;20140;-70
2023/08/09 19:52:00;;;;;;;10.13;4.20;;;;;;;27.29;100.00;100860.75;21028869;28;20517;-70
2023/08/09 20:02:25;;;;;;;10.80;2.75;;;;;;;27.30;100.00;100865.22;21041151;28;20039;-71
2023/08/09 20:12:48;;;;;;;11.18;3.75;;;;;;;27.26;100.00;100875.34;21048831;28;20162;-71
2023/08/09 20:23:13;;;;;;;10.57;2.80;;;;;;;27.17;100.00;100867.69;21070372;28;20565;-71
2023/08/09 20:33:35;;;;;;;11.50;3.25;;;;;;;27.17;100.00;100877.66;21043061;28;20040;-71
2023/08/09 20:43:59;;;;;;;11.15;2.65;;;;;;;27.18;100.00;100873.97;21044136;28;20058;-71
2023/08/09 20:54:23;;;;;;;9.93;2.75;;;;;;;27.10;100.00;100863.53;21045516;28;20048;-70
2023/08/09 21:04:47;;;;;;;10.55;3.15;;;;;;;27.03;100.00;100866.63;21026522;28;20151;-70
2023/08/09 21:15:10;;;;;;;7.53;3.00;;;;;;;26.98;100.00;100866.00;21040553;28;20044;-71
2023/08/09 21:25:37;;;;;;;10.20;2.78;;;;;;;26.96;100.00;100863.34;21037215;28;20059;-70
2023/08/09 21:35:41;;;;;;;10.00;3.27;;;;;;;26.88;100.00;100860.13;21067282;28;20097;-70
2023/08/09 21:46:05;;;;;;;12.50;3.20;;;;;;;26.83;100.00;100868.47;21010813;28;20060;-70
2023/08/09 21:56:16;;;;;;;8.15;2.60;;;;;;;26.72;100.00;100860.00;21002707;28;20450;-71
2023/08/09 22:06:40;;;;;;;9.27;3.55;;;;;;;26.64;100.00;100862.22;20989309;28;20078;-71
2023/08/09 22:17:03;;;;;;;13.52;4.00;;;;;;;26.50;100.00;100843.94;21004030;28;20055;-71
2023/08/09 22:27:27;;;;;;;8.95;2.90;;;;;;;26.50;100.00;100845.78;20983276;28;20051;-71
2023/08/09 22:37:50;;;;;;;9.98;3.13;;;;;;;26.43;100.00;100834.34;20988985;28;20051;-71
2023/08/09 22:47:55;;;;;;;10.82;3.40;;;;;;;26.38;100.00;100830.13;21000455;28;20089;-71
2023/08/09 22:58:18;;;;;;;7.63;2.85;;;;;;;26.37;100.00;100822.94;20985255;28;20063;-71
2023/08/09 23:08:42;;;;;;;10.52;3.10;;;;;;;26.40;100.00;100823.66;20959783;28;20066;-71
2023/08/09 23:19:05;;;;;;;15.63;3.90;;;;;;;26.37;100.00;100804.88;20999443;28;20618;-70
2023/08/09 23:29:29;;;;;;;9.93;3.33;;;;;;;26.35;100.00;100805.91;20995829;28;20059;-70
2023/08/09 23:39:51;;;;;;;8.63;3.05;;;;;;;26.33;100.00;100805.06;20982110;28;20044;-71
2023/08/09 23:50:16;;;;;;;6.57;2.80;;;;;;;26.22;100.00;100805.56;20980884;28;20195;-70
